createdAt,value
2017-06-08T00:00:24.452Z,18.8
2017-06-08T00:01:32.543Z,18.7
2017-06-08T00:02:40.629Z,18.7
2017-06-08T00:03:48.720Z,18.7
2017-06-08T00:04:56.855Z,18.7
2017-06-08T00:06:04.883Z,18.7
2017-06-08T00:07:12.969Z,18.7
2017-06-08T00:08:21.057Z,18.7
2017-06-08T00:09:29.146Z,18.7
2017-06-08T00:10:37.238Z,18.7
2017-06-08T00:11:45.317Z,18.7
2017-06-08T00:12:53.401Z,18.6
2017-06-08T00:14:01.488Z,18.7
2017-06-08T00:15:09.574Z,18.7
2017-06-08T00:16:17.656Z,18.7
2017-06-08T00:17:26.068Z,18.6
2017-06-08T00:18:33.826Z,18.7
2017-06-08T00:19:42.437Z,18.7
2017-06-08T00:20:49.996Z,18.7
2017-06-08T00:21:58.154Z,18.6
2017-06-08T00:23:06.168Z,18.5
2017-06-08T00:24:14.281Z,18.7
2017-06-08T00:25:22.338Z,18.6
2017-06-08T00:26:30.421Z,18.6
2017-06-08T00:27:38.504Z,18.6
2017-06-08T00:28:46.591Z,18.6
2017-06-08T00:29:54.676Z,18.6
2017-06-08T00:31:02.759Z,18.6
2017-06-08T00:32:10.845Z,18.6
2017-06-08T00:33:18.959Z,18.6
2017-06-08T00:34:27.015Z,18.6
2017-06-08T00:35:35.101Z,18.6
2017-06-08T00:36:43.185Z,18.6
2017-06-08T00:37:51.271Z,18.6
2017-06-08T00:38:59.427Z,18.6
2017-06-08T00:40:07.441Z,18.6
2017-06-08T00:41:15.528Z,18.6
2017-06-08T00:42:23.613Z,18.5
2017-06-08T00:43:31.698Z,18.5
2017-06-08T00:44:39.783Z,18.6
2017-06-08T00:45:48.135Z,18.5
2017-06-08T00:46:55.952Z,18.5
2017-06-08T00:48:04.068Z,18.5
2017-06-08T00:49:12.121Z,18.5
2017-06-08T00:50:20.208Z,18.5
2017-06-08T00:51:28.291Z,18.4
2017-06-08T00:52:36.383Z,18.4
2017-06-08T00:53:44.469Z,18.5
2017-06-08T00:54:52.548Z,18.4
2017-06-08T00:56:00.710Z,18.5
2017-06-08T00:57:08.715Z,18.5
2017-06-08T00:58:16.798Z,18.4
2017-06-08T00:59:24.922Z,18.4
2017-06-08T01:00:32.967Z,18.5
2017-06-08T01:01:41.055Z,18.5
2017-06-08T01:02:49.138Z,18.5
2017-06-08T01:03:57.231Z,18.4
2017-06-08T01:05:05.313Z,18.4
2017-06-08T01:06:13.392Z,18.4
2017-06-08T01:07:21.476Z,18.5
2017-06-08T01:08:29.559Z,18.4
2017-06-08T01:09:37.673Z,18.5
2017-06-08T01:10:45.732Z,18.4
2017-06-08T01:11:53.825Z,18.4
2017-06-08T01:13:01.982Z,18.4
2017-06-08T01:14:09.984Z,18.4
2017-06-08T01:15:18.070Z,18.5
2017-06-08T01:16:26.162Z,18.4
2017-06-08T01:17:34.254Z,18.4
2017-06-08T01:18:42.336Z,18.4
2017-06-08T01:19:50.420Z,18.4
2017-06-08T01:20:58.515Z,18.5
2017-06-08T01:22:06.601Z,18.5
2017-06-08T01:23:14.685Z,18.4
2017-06-08T01:24:22.768Z,18.4
2017-06-08T01:25:30.853Z,18.4
2017-06-08T01:26:38.940Z,18.4
2017-06-08T01:27:47.024Z,18.3
2017-06-08T01:28:55.109Z,18.3
2017-06-08T01:30:03.243Z,18.3
2017-06-08T01:31:11.278Z,18.3
2017-06-08T01:32:19.363Z,18.3
2017-06-08T01:33:27.447Z,18.3
2017-06-08T01:34:35.533Z,18.3
2017-06-08T01:35:43.617Z,18.3
2017-06-08T01:36:51.701Z,18.3
2017-06-08T01:37:59.812Z,18.3
2017-06-08T01:39:07.871Z,18.3
2017-06-08T01:40:15.957Z,18.4
2017-06-08T01:41:24.043Z,18.3
2017-06-08T01:42:32.126Z,18.3
2017-06-08T01:43:40.210Z,18.3
2017-06-08T01:44:48.293Z,18.3
2017-06-08T01:45:56.388Z,18.3
2017-06-08T01:47:04.534Z,18.3
2017-06-08T01:48:12.554Z,18.3
2017-06-08T01:49:20.636Z,18.2
2017-06-08T01:50:28.725Z,18.2
2017-06-08T01:51:36.840Z,18.2
2017-06-08T01:52:44.887Z,18.2
2017-06-08T01:53:52.979Z,18.2
2017-06-08T01:55:01.056Z,18.2
2017-06-08T01:56:09.143Z,18.2
2017-06-08T01:57:17.232Z,18.2
2017-06-08T01:58:25.312Z,18.2
2017-06-08T01:59:33.396Z,18.2
2017-06-08T02:00:41.484Z,18.2
2017-06-08T02:01:49.567Z,18.2
2017-06-08T02:02:57.677Z,18.2
2017-06-08T02:04:05.834Z,18.2
2017-06-08T02:05:13.820Z,18.2
2017-06-08T02:06:21.905Z,18.2
2017-06-08T02:07:29.991Z,18.2
2017-06-08T02:08:38.075Z,18.3
2017-06-08T02:09:46.161Z,18.2
2017-06-08T02:10:54.247Z,18.1
2017-06-08T02:12:02.331Z,18.2
2017-06-08T02:13:10.415Z,18.1
2017-06-08T02:14:18.500Z,18.1
2017-06-08T02:15:26.586Z,18.1
2017-06-08T02:16:34.672Z,18.1
2017-06-08T02:17:42.793Z,18.1
2017-06-08T02:18:50.841Z,18.1
2017-06-08T02:19:58.925Z,18.1
2017-06-08T02:21:07.102Z,18.1
2017-06-08T02:22:15.098Z,18.1
2017-06-08T02:23:23.182Z,18.1
2017-06-08T02:24:31.266Z,18.1
2017-06-08T02:25:39.351Z,18.1
2017-06-08T02:26:47.436Z,18.1
2017-06-08T02:27:55.522Z,18.1
2017-06-08T02:29:03.606Z,18.1
2017-06-08T02:30:11.693Z,18.1
2017-06-08T02:31:19.774Z,18.1
2017-06-08T02:32:27.859Z,18.1
2017-06-08T02:33:35.944Z,18.0
2017-06-08T02:34:44.040Z,18.1
2017-06-08T02:35:52.116Z,18.0
2017-06-08T02:37:00.201Z,18.1
2017-06-08T02:38:08.353Z,18.1
2017-06-08T02:39:16.370Z,18.0
2017-06-08T02:40:24.454Z,18.0
2017-06-08T02:41:32.538Z,18.0
2017-06-08T02:42:40.622Z,18.0
2017-06-08T02:43:48.707Z,18.0
2017-06-08T02:44:56.793Z,18.0
2017-06-08T02:46:04.876Z,18.0
2017-06-08T02:47:12.963Z,18.0
2017-06-08T02:48:21.048Z,18.0
2017-06-08T02:49:29.133Z,18.0
2017-06-08T02:50:37.218Z,18.0
2017-06-08T02:51:45.300Z,18.0
2017-06-08T02:52:53.386Z,18.0
2017-06-08T02:54:01.473Z,18.0
2017-06-08T02:55:09.557Z,18.0
2017-06-08T02:56:17.642Z,18.0
2017-06-08T02:57:25.724Z,17.9
2017-06-08T02:58:33.816Z,18.0
2017-06-08T02:59:41.896Z,18.1
2017-06-08T03:00:49.980Z,17.9
2017-06-08T03:01:58.064Z,17.9
2017-06-08T03:03:06.149Z,18.0
2017-06-08T03:04:14.238Z,18.0
2017-06-08T03:05:22.318Z,18.0
2017-06-08T03:06:30.402Z,17.9
2017-06-08T03:07:38.489Z,18.0
2017-06-08T03:08:46.580Z,18.0
2017-06-08T03:09:54.663Z,18.0
2017-06-08T03:11:02.749Z,18.0
2017-06-08T03:12:10.840Z,18.0
2017-06-08T03:13:18.920Z,17.9
2017-06-08T03:14:27.010Z,18.0
2017-06-08T03:15:35.087Z,17.9
2017-06-08T03:16:43.172Z,17.9
2017-06-08T03:17:51.259Z,17.9
2017-06-08T03:18:59.342Z,17.9
2017-06-08T03:20:07.436Z,17.9
2017-06-08T03:21:15.511Z,17.9
2017-06-08T03:22:23.597Z,17.9
2017-06-08T03:23:31.680Z,17.9
2017-06-08T03:24:39.766Z,18.0
2017-06-08T03:25:47.850Z,17.9
2017-06-08T03:26:55.936Z,17.9
2017-06-08T03:28:04.023Z,17.9
2017-06-08T03:29:12.104Z,17.9
2017-06-08T03:30:20.190Z,17.9
2017-06-08T03:31:28.277Z,17.9
2017-06-08T03:32:36.356Z,17.8
2017-06-08T03:33:44.444Z,17.8
2017-06-08T03:34:52.528Z,17.8
2017-06-08T03:36:00.612Z,17.8
2017-06-08T03:37:08.706Z,17.8
2017-06-08T03:38:16.782Z,17.8
2017-06-08T03:39:24.865Z,17.8
2017-06-08T03:40:32.951Z,17.8
2017-06-08T03:41:41.035Z,17.8
2017-06-08T03:42:49.131Z,17.8
2017-06-08T03:43:57.213Z,17.8
2017-06-08T03:45:05.290Z,17.8
2017-06-08T03:46:13.379Z,17.8
2017-06-08T03:47:21.460Z,17.8
2017-06-08T03:48:29.544Z,17.8
2017-06-08T03:49:37.626Z,17.8
2017-06-08T03:50:45.710Z,17.8
2017-06-08T03:51:53.795Z,17.8
2017-06-08T03:53:01.881Z,17.8
2017-06-08T03:54:09.965Z,17.8
2017-06-08T03:55:18.050Z,17.8
2017-06-08T03:56:26.161Z,17.7
2017-06-08T03:57:34.221Z,17.7
2017-06-08T03:58:42.306Z,17.8
2017-06-08T03:59:50.389Z,17.7
2017-06-08T04:00:58.475Z,17.7
2017-06-08T04:02:06.563Z,17.7
2017-06-08T04:03:14.649Z,17.7
2017-06-08T04:04:22.731Z,17.7
2017-06-08T04:05:30.815Z,17.7
2017-06-08T04:06:38.904Z,17.8
2017-06-08T04:07:46.989Z,17.7
2017-06-08T04:08:55.075Z,17.7
2017-06-08T04:10:03.167Z,17.7
2017-06-08T04:11:11.255Z,17.8
2017-06-08T04:12:19.330Z,17.7
2017-06-08T04:13:27.419Z,17.8
2017-06-08T04:14:35.499Z,17.7
2017-06-08T04:15:43.583Z,17.7
2017-06-08T04:16:51.673Z,17.8
2017-06-08T04:17:59.754Z,17.7
2017-06-08T04:19:07.836Z,17.7
2017-06-08T04:20:15.921Z,17.8
2017-06-08T04:21:24.006Z,17.7
2017-06-08T04:22:32.091Z,17.4
2017-06-08T04:23:40.176Z,17.3
2017-06-08T04:24:48.260Z,17.2
2017-06-08T04:25:56.341Z,17.3
2017-06-08T04:27:04.519Z,17.3
2017-06-08T04:28:12.761Z,17.2
2017-06-08T04:29:20.599Z,17.3
2017-06-08T04:30:28.680Z,17.2
2017-06-08T04:31:36.776Z,17.2
2017-06-08T04:32:44.850Z,17.2
2017-06-08T04:33:52.929Z,17.3
2017-06-08T04:35:01.058Z,17.3
2017-06-08T04:36:09.099Z,17.3
2017-06-08T04:37:17.181Z,17.2
2017-06-08T04:38:25.267Z,17.2
2017-06-08T04:39:33.348Z,17.3
2017-06-08T04:40:41.433Z,17.2
2017-06-08T04:41:49.516Z,17.2
2017-06-08T04:42:57.624Z,17.2
2017-06-08T04:44:05.680Z,17.3
2017-06-08T04:45:13.774Z,17.2
2017-06-08T04:46:21.851Z,17.3
2017-06-08T04:47:29.935Z,17.2
2017-06-08T04:48:38.312Z,17.2
2017-06-08T04:49:46.100Z,17.3
2017-06-08T04:50:54.313Z,17.4
2017-06-08T04:52:02.271Z,17.3
2017-06-08T04:53:10.355Z,17.4
2017-06-08T04:54:18.436Z,17.4
2017-06-08T04:55:26.521Z,17.3
2017-06-08T04:56:34.664Z,17.4
2017-06-08T04:57:42.686Z,17.4
2017-06-08T04:58:50.773Z,17.4
2017-06-08T04:59:58.859Z,17.5
2017-06-08T05:01:06.944Z,17.5
2017-06-08T05:02:15.029Z,17.4
2017-06-08T05:03:23.112Z,17.5
2017-06-08T05:04:31.252Z,17.5
2017-06-08T05:05:39.394Z,17.5
2017-06-08T05:06:47.372Z,17.5
2017-06-08T05:07:55.457Z,17.4
2017-06-08T05:09:03.547Z,17.6
2017-06-08T05:10:11.629Z,17.6
2017-06-08T05:11:19.711Z,17.5
2017-06-08T05:12:28.069Z,17.6
2017-06-08T05:13:35.881Z,17.6
2017-06-08T05:14:43.964Z,17.6
2017-06-08T05:15:52.121Z,17.5
2017-06-08T05:17:00.136Z,17.5
2017-06-08T05:18:08.222Z,17.6
2017-06-08T05:19:16.306Z,17.6
2017-06-08T05:20:24.390Z,17.6
2017-06-08T05:21:32.477Z,17.7
2017-06-08T05:22:40.566Z,17.6
2017-06-08T05:23:48.671Z,17.7
2017-06-08T05:24:56.753Z,17.7
2017-06-08T05:26:04.829Z,17.7
2017-06-08T05:27:12.904Z,17.6
2017-06-08T05:28:20.988Z,17.7
2017-06-08T05:29:29.083Z,17.7
2017-06-08T05:30:37.184Z,17.7
2017-06-08T05:31:45.245Z,17.7
2017-06-08T05:32:53.328Z,17.7
2017-06-08T05:34:01.413Z,17.8
2017-06-08T05:35:09.499Z,17.7
2017-06-08T05:36:17.592Z,17.7
2017-06-08T05:37:25.669Z,17.8
2017-06-08T05:38:33.753Z,17.8
2017-06-08T05:39:41.837Z,17.8
2017-06-08T05:40:49.937Z,17.8
2017-06-08T05:41:58.025Z,17.8
2017-06-08T05:43:06.107Z,17.8
2017-06-08T05:44:14.198Z,17.8
2017-06-08T05:45:22.282Z,18.0
2017-06-08T05:46:30.370Z,17.9
2017-06-08T05:47:38.453Z,17.9
2017-06-08T05:48:46.543Z,17.9
2017-06-08T05:49:54.621Z,18.0
2017-06-08T05:51:02.706Z,17.9
2017-06-08T05:52:10.791Z,17.9
2017-06-08T05:53:18.876Z,18.0
2017-06-08T05:54:26.961Z,17.9
2017-06-08T05:55:35.059Z,18.0
2017-06-08T05:56:43.130Z,17.9
2017-06-08T05:57:51.219Z,18.0
2017-06-08T05:58:59.329Z,18.0
2017-06-08T06:00:07.391Z,18.0
2017-06-08T06:01:15.480Z,17.9
2017-06-08T06:02:23.564Z,18.0
2017-06-08T06:03:31.650Z,17.9
2017-06-08T06:04:39.735Z,18.0
2017-06-08T06:05:47.819Z,18.0
2017-06-08T06:06:55.948Z,18.1
2017-06-08T06:08:03.990Z,17.9
2017-06-08T06:09:12.081Z,18.1
2017-06-08T06:10:20.528Z,18.0
2017-06-08T06:11:28.524Z,18.0
2017-06-08T06:12:36.856Z,18.0
2017-06-08T06:13:44.524Z,18.0
2017-06-08T06:14:53.069Z,18.0
2017-06-08T06:16:00.994Z,18.1
2017-06-08T06:17:10.163Z,18.0
2017-06-08T06:18:16.917Z,18.1
2017-06-08T06:19:25.455Z,18.1
2017-06-08T06:20:32.979Z,18.1
2017-06-08T06:21:41.094Z,18.1
2017-06-08T06:22:49.480Z,18.1
2017-06-08T06:23:57.874Z,18.1
2017-06-08T06:25:06.627Z,18.1
2017-06-08T06:26:13.491Z,18.1
2017-06-08T06:27:21.709Z,18.1
2017-06-08T06:28:29.972Z,18.1
2017-06-08T06:29:37.875Z,18.1
2017-06-08T06:30:45.967Z,18.0
2017-06-08T06:31:53.946Z,18.1
2017-06-08T06:33:02.366Z,18.1
2017-06-08T06:34:10.030Z,18.2
2017-06-08T06:35:18.178Z,18.1
2017-06-08T06:36:26.793Z,18.1
2017-06-08T06:37:34.417Z,18.1
2017-06-08T06:38:42.611Z,18.1
2017-06-08T06:39:50.685Z,18.2
2017-06-08T06:40:58.580Z,18.1
2017-06-08T06:42:06.730Z,18.2
2017-06-08T06:43:15.323Z,18.2
2017-06-08T06:44:23.108Z,18.1
2017-06-08T06:45:31.175Z,18.2
2017-06-08T06:46:40.450Z,18.2
2017-06-08T06:47:47.132Z,18.1
2017-06-08T06:48:55.547Z,18.2
2017-06-08T06:50:03.238Z,18.2
2017-06-08T06:51:11.328Z,18.2
2017-06-08T06:52:19.459Z,18.2
2017-06-08T06:53:27.533Z,18.2
2017-06-08T06:54:35.566Z,18.2
2017-06-08T06:55:44.178Z,18.2
2017-06-08T06:56:51.765Z,18.2
2017-06-08T06:58:00.334Z,18.2
2017-06-08T06:59:08.331Z,18.2
2017-06-08T07:00:16.451Z,18.3
2017-06-08T07:01:24.047Z,18.2
2017-06-08T07:02:34.092Z,18.2
2017-06-08T07:03:40.322Z,18.3
2017-06-08T07:04:48.324Z,18.2
2017-06-08T07:05:57.022Z,18.2
2017-06-08T07:07:04.514Z,18.2
2017-06-08T07:08:12.758Z,18.3
2017-06-08T07:09:20.769Z,18.3
2017-06-08T07:10:28.796Z,18.3
2017-06-08T07:11:37.027Z,18.3
2017-06-08T07:12:45.343Z,18.3
2017-06-08T07:13:53.230Z,18.3
2017-06-08T07:15:01.338Z,18.4
2017-06-08T07:16:09.328Z,18.3
2017-06-08T07:17:17.337Z,18.3
2017-06-08T07:18:25.386Z,18.3
2017-06-08T07:19:33.841Z,18.3
2017-06-08T07:20:41.904Z,18.3
2017-06-08T07:21:49.553Z,18.3
2017-06-08T07:22:58.389Z,18.3
2017-06-08T07:24:05.918Z,18.3
2017-06-08T07:25:14.065Z,18.3
2017-06-08T07:26:23.317Z,18.5
2017-06-08T07:27:29.998Z,18.5
2017-06-08T07:28:38.129Z,18.4
2017-06-08T07:29:46.201Z,18.4
2017-06-08T07:30:54.532Z,18.4
2017-06-08T07:32:02.426Z,18.4
2017-06-08T07:33:10.522Z,18.4
2017-06-08T07:34:18.961Z,18.4
2017-06-08T07:35:26.614Z,18.4
2017-06-08T07:36:35.035Z,18.5
2017-06-08T07:37:43.322Z,18.4
2017-06-08T07:38:50.918Z,18.5
2017-06-08T07:39:59.504Z,18.5
2017-06-08T07:41:07.699Z,18.5
2017-06-08T07:42:15.182Z,18.4
2017-06-08T07:43:23.382Z,18.5
2017-06-08T07:44:31.389Z,18.5
2017-06-08T07:45:39.898Z,18.5
2017-06-08T07:46:47.443Z,18.5
2017-06-08T07:47:55.519Z,18.5
2017-06-08T07:49:03.733Z,18.5
2017-06-08T07:50:12.279Z,18.5
2017-06-08T07:51:20.114Z,18.5
2017-06-08T07:52:27.921Z,18.4
2017-06-08T07:53:36.025Z,18.4
2017-06-08T07:54:44.173Z,18.5
2017-06-08T07:55:52.353Z,18.5
2017-06-08T07:57:00.327Z,18.5
2017-06-08T07:58:08.665Z,18.5
2017-06-08T07:59:16.391Z,18.5
2017-06-08T08:00:24.497Z,18.5
2017-06-08T08:01:32.676Z,18.5
2017-06-08T08:02:40.791Z,18.6
2017-06-08T08:03:49.206Z,18.6
2017-06-08T08:04:57.462Z,18.6
2017-06-08T08:06:05.401Z,18.5
2017-06-08T08:07:13.091Z,18.6
2017-06-08T08:08:21.170Z,18.6
2017-06-08T08:09:29.219Z,18.6
2017-06-08T08:10:37.516Z,18.6
2017-06-08T08:11:45.612Z,18.6
2017-06-08T08:12:53.442Z,18.6
2017-06-08T08:14:01.873Z,18.6
2017-06-08T08:15:09.556Z,18.6
2017-06-08T08:16:18.317Z,18.6
2017-06-08T08:17:25.793Z,18.7
2017-06-08T08:18:34.485Z,18.7
2017-06-08T08:19:41.998Z,18.6
2017-06-08T08:20:50.252Z,18.6
2017-06-08T08:21:58.198Z,18.7
2017-06-08T08:23:06.732Z,18.6
2017-06-08T08:24:14.313Z,18.7
2017-06-08T08:25:22.432Z,18.7
2017-06-08T08:26:31.044Z,18.7
2017-06-08T08:27:38.797Z,18.7
2017-06-08T08:28:46.667Z,18.7
2017-06-08T08:29:55.148Z,18.7
2017-06-08T08:31:02.886Z,18.7
2017-06-08T08:32:11.000Z,18.7
2017-06-08T08:33:19.062Z,18.7
2017-06-08T08:34:27.125Z,18.7
2017-06-08T08:35:35.445Z,18.7
2017-06-08T08:36:43.459Z,18.7
2017-06-08T08:37:51.326Z,18.6
2017-06-08T08:38:59.395Z,18.8
2017-06-08T08:40:07.627Z,18.7
2017-06-08T08:41:15.941Z,18.8
2017-06-08T08:42:23.767Z,18.8
2017-06-08T08:43:31.710Z,18.7
2017-06-08T08:44:39.978Z,18.7
2017-06-08T08:45:48.470Z,18.8
2017-06-08T08:46:55.992Z,18.8
2017-06-08T08:48:04.174Z,18.8
2017-06-08T08:49:12.453Z,18.8
2017-06-08T08:50:20.360Z,18.8
2017-06-08T08:51:28.431Z,18.8
2017-06-08T08:52:36.555Z,18.8
2017-06-08T08:53:44.728Z,18.7
2017-06-08T08:54:53.337Z,18.8
2017-06-08T08:56:00.670Z,18.9
2017-06-08T08:57:08.895Z,18.8
2017-06-08T08:58:16.947Z,18.8
2017-06-08T08:59:25.017Z,18.8
2017-06-08T09:00:33.439Z,18.8
2017-06-08T09:01:41.280Z,18.8
2017-06-08T09:02:49.428Z,18.8
2017-06-08T09:03:57.357Z,18.8
2017-06-08T09:05:05.577Z,18.8
2017-06-08T09:06:13.531Z,18.8
2017-06-08T09:07:22.061Z,18.8
2017-06-08T09:08:29.935Z,18.8
2017-06-08T09:09:37.836Z,18.9
2017-06-08T09:10:46.214Z,19.0
2017-06-08T09:11:53.913Z,18.9
2017-06-08T09:13:02.190Z,18.9
2017-06-08T09:14:10.621Z,19.0
2017-06-08T09:15:18.236Z,18.9
2017-06-08T09:16:26.354Z,18.9
2017-06-08T09:17:34.951Z,18.9
2017-06-08T09:18:42.454Z,19.0
2017-06-08T09:19:50.581Z,18.9
2017-06-08T09:20:58.790Z,19.0
2017-06-08T09:22:06.737Z,19.0
2017-06-08T09:23:14.787Z,19.0
2017-06-08T09:24:23.424Z,19.0
2017-06-08T09:25:31.000Z,19.0
2017-06-08T09:26:39.136Z,19.0
2017-06-08T09:27:47.193Z,19.0
2017-06-08T09:28:55.761Z,18.9
2017-06-08T09:30:03.495Z,19.0
2017-06-08T09:31:11.452Z,18.9
2017-06-08T09:32:19.589Z,19.0
2017-06-08T09:33:27.717Z,19.0
2017-06-08T09:34:36.171Z,19.0
2017-06-08T09:35:43.763Z,19.0
2017-06-08T09:36:51.860Z,19.1
2017-06-08T09:38:00.001Z,19.1
2017-06-08T09:39:08.567Z,19.0
2017-06-08T09:40:16.357Z,19.0
2017-06-08T09:41:24.392Z,19.1
2017-06-08T09:42:32.517Z,19.1
2017-06-08T09:43:40.580Z,19.1
2017-06-08T09:44:48.413Z,19.1
2017-06-08T09:45:56.974Z,19.1
2017-06-08T09:47:04.644Z,19.1
2017-06-08T09:48:13.173Z,19.0
2017-06-08T09:49:20.950Z,19.0
2017-06-08T09:50:29.349Z,19.1
2017-06-08T09:51:38.289Z,19.1
2017-06-08T09:52:45.049Z,19.0
2017-06-08T09:53:53.357Z,19.1
2017-06-08T09:55:01.422Z,19.1
2017-06-08T09:56:09.386Z,19.0
2017-06-08T09:57:17.600Z,19.0
2017-06-08T09:58:25.465Z,19.0
2017-06-08T09:59:33.760Z,19.1
2017-06-08T10:00:41.869Z,18.9
2017-06-08T10:01:52.267Z,19.0
2017-06-08T10:02:57.783Z,18.9
2017-06-08T10:04:05.922Z,18.9
2017-06-08T10:05:14.037Z,19.0
2017-06-08T10:06:22.047Z,19.0
2017-06-08T10:07:30.156Z,18.9
2017-06-08T10:08:38.284Z,18.9
2017-06-08T10:09:46.439Z,18.9
2017-06-08T10:10:54.447Z,18.9
2017-06-08T10:12:02.557Z,18.9
2017-06-08T10:13:10.662Z,18.8
2017-06-08T10:14:18.647Z,19.0
2017-06-08T10:15:29.189Z,19.0
2017-06-08T10:16:34.847Z,18.9
2017-06-08T10:17:43.296Z,18.9
2017-06-08T10:18:51.196Z,18.9
2017-06-08T10:19:59.141Z,18.9
2017-06-08T10:21:07.656Z,19.0
2017-06-08T10:22:15.386Z,18.9
2017-06-08T10:23:24.834Z,19.0
2017-06-08T10:24:31.845Z,18.9
2017-06-08T10:25:39.636Z,18.9
2017-06-08T10:26:47.747Z,19.0
2017-06-08T10:27:55.892Z,19.0
2017-06-08T10:29:05.881Z,19.0
2017-06-08T10:30:12.388Z,19.0
2017-06-08T10:31:19.969Z,18.9
2017-06-08T10:32:28.060Z,18.9
2017-06-08T10:33:36.084Z,18.9
2017-06-08T10:34:44.204Z,18.9
2017-06-08T10:35:52.873Z,18.9
2017-06-08T10:37:00.362Z,19.0
2017-06-08T10:38:08.799Z,18.9
2017-06-08T10:39:17.182Z,18.9
2017-06-08T10:40:24.578Z,18.9
2017-06-08T10:41:32.896Z,18.9
2017-06-08T10:42:41.318Z,19.0
2017-06-08T10:43:48.912Z,19.0
2017-06-08T10:44:57.394Z,18.9
2017-06-08T10:46:05.076Z,19.0
2017-06-08T10:47:15.430Z,18.9
2017-06-08T10:48:21.169Z,18.9
2017-06-08T10:49:29.954Z,18.9
2017-06-08T10:50:37.358Z,18.9
2017-06-08T10:51:46.073Z,18.9
2017-06-08T10:52:54.008Z,18.9
2017-06-08T10:54:01.623Z,19.0
2017-06-08T10:55:09.849Z,18.9
2017-06-08T10:56:17.883Z,19.0
2017-06-08T10:57:26.035Z,19.0
2017-06-08T10:58:34.036Z,18.9
2017-06-08T10:59:42.075Z,19.0
2017-06-08T11:00:50.637Z,19.0
2017-06-08T11:02:00.613Z,19.0
2017-06-08T11:03:06.341Z,18.9
2017-06-08T11:04:14.845Z,19.0
2017-06-08T11:05:22.896Z,19.0
2017-06-08T11:06:30.610Z,18.9
2017-06-08T11:07:38.774Z,19.0
2017-06-08T11:08:47.021Z,19.1
2017-06-08T11:09:54.878Z,19.1
2017-06-08T11:11:03.155Z,19.1
2017-06-08T11:12:11.025Z,19.1
2017-06-08T11:13:19.555Z,19.0
2017-06-08T11:14:27.257Z,19.0
2017-06-08T11:15:35.663Z,19.1
2017-06-08T11:16:43.779Z,19.0
2017-06-08T11:17:51.519Z,19.1
2017-06-08T11:18:59.592Z,19.0
2017-06-08T11:20:07.653Z,19.1
2017-06-08T11:21:15.871Z,19.1
2017-06-08T11:22:24.350Z,19.1
2017-06-08T11:23:32.430Z,19.1
2017-06-08T11:24:40.449Z,19.1
2017-06-08T11:25:48.133Z,19.1
2017-06-08T11:26:56.162Z,19.0
2017-06-08T11:28:04.755Z,19.1
2017-06-08T11:29:12.413Z,19.1
2017-06-08T11:30:20.433Z,19.1
2017-06-08T11:31:28.532Z,19.0
2017-06-08T11:32:37.160Z,19.1
2017-06-08T11:33:44.745Z,19.1
2017-06-08T11:34:52.770Z,19.1
2017-06-08T11:36:00.938Z,19.1
2017-06-08T11:37:09.187Z,19.1
2017-06-08T11:38:17.015Z,19.1
2017-06-08T11:39:25.125Z,19.1
2017-06-08T11:40:33.774Z,19.1
2017-06-08T11:41:41.666Z,19.1
2017-06-08T11:42:49.402Z,19.1
2017-06-08T11:43:57.533Z,19.1
2017-06-08T11:45:05.673Z,19.1
2017-06-08T11:46:13.674Z,19.1
2017-06-08T11:47:21.695Z,19.1
2017-06-08T11:48:29.779Z,19.1
2017-06-08T11:49:37.964Z,19.2
2017-06-08T11:50:47.235Z,19.2
2017-06-08T11:51:54.410Z,19.1
2017-06-08T11:53:02.343Z,19.2
2017-06-08T11:54:10.470Z,19.2
2017-06-08T11:55:18.764Z,19.1
2017-06-08T11:56:26.364Z,19.1
2017-06-08T11:57:34.754Z,19.1
2017-06-08T11:58:42.458Z,19.1
2017-06-08T11:59:51.204Z,19.1
2017-06-08T12:00:58.802Z,19.1
2017-06-08T12:02:06.815Z,19.2
2017-06-08T12:03:15.053Z,19.1
2017-06-08T12:04:23.017Z,19.1
2017-06-08T12:05:31.178Z,19.1
2017-06-08T12:06:39.163Z,19.1
2017-06-08T12:07:47.239Z,19.1
2017-06-08T12:08:55.588Z,19.1
2017-06-08T12:10:03.433Z,19.2
2017-06-08T12:11:11.765Z,19.1
2017-06-08T12:12:19.599Z,19.1
2017-06-08T12:13:27.719Z,19.1
2017-06-08T12:14:36.269Z,19.1
2017-06-08T12:15:43.853Z,19.1
2017-06-08T12:16:52.229Z,19.2
2017-06-08T12:17:59.994Z,19.2
2017-06-08T12:19:08.137Z,19.1
2017-06-08T12:20:16.404Z,19.1
2017-06-08T12:21:24.251Z,19.2
2017-06-08T12:22:32.326Z,19.2
2017-06-08T12:23:41.024Z,19.2
2017-06-08T12:24:49.700Z,19.2
2017-06-08T12:25:56.593Z,19.2
2017-06-08T12:27:05.263Z,19.2
2017-06-08T12:28:12.739Z,19.2
2017-06-08T12:29:21.054Z,19.2
2017-06-08T12:30:28.991Z,19.2
2017-06-08T12:31:37.511Z,19.2
2017-06-08T12:32:45.496Z,19.3
2017-06-08T12:33:53.265Z,19.2
2017-06-08T12:35:01.698Z,19.3
2017-06-08T12:36:09.379Z,19.3
2017-06-08T12:37:17.742Z,19.3
2017-06-08T12:38:25.636Z,19.2
2017-06-08T12:39:34.323Z,19.3
2017-06-08T12:40:41.851Z,19.2
2017-06-08T12:41:49.901Z,19.3
2017-06-08T12:42:57.985Z,19.3
2017-06-08T12:44:06.106Z,19.2
2017-06-08T12:45:14.285Z,19.3
2017-06-08T12:46:22.251Z,19.3
2017-06-08T12:47:30.279Z,19.2
2017-06-08T12:48:38.375Z,19.3
2017-06-08T12:49:46.427Z,19.3
2017-06-08T12:50:54.735Z,19.3
2017-06-08T12:52:02.691Z,19.2
2017-06-08T12:53:10.634Z,19.4
2017-06-08T12:54:18.807Z,19.3
2017-06-08T12:55:26.856Z,19.4
2017-06-08T12:56:35.455Z,19.4
2017-06-08T12:57:43.108Z,19.4
2017-06-08T12:58:51.105Z,19.4
2017-06-08T12:59:59.701Z,19.4
2017-06-08T13:01:07.279Z,19.3
2017-06-08T13:02:15.410Z,19.3
2017-06-08T13:03:23.608Z,19.4
2017-06-08T13:04:32.153Z,19.3
2017-06-08T13:05:40.150Z,19.4
2017-06-08T13:06:47.696Z,19.4
2017-06-08T13:07:55.899Z,19.4
2017-06-08T13:09:04.214Z,19.4
2017-06-08T13:10:12.018Z,19.4
2017-06-08T13:11:20.112Z,19.3
2017-06-08T13:12:28.293Z,19.4
2017-06-08T13:13:36.137Z,19.4
2017-06-08T13:14:44.224Z,19.4
2017-06-08T13:15:52.308Z,19.3
2017-06-08T13:17:00.396Z,19.4
2017-06-08T13:18:08.479Z,19.4
2017-06-08T13:19:16.565Z,19.4
2017-06-08T13:20:24.655Z,19.3
2017-06-08T13:21:32.738Z,19.4
2017-06-08T13:22:40.824Z,19.3
2017-06-08T13:23:48.909Z,19.5
2017-06-08T13:24:56.995Z,19.4
2017-06-08T13:26:05.089Z,19.4
2017-06-08T13:27:13.166Z,19.4
2017-06-08T13:28:21.250Z,19.4
2017-06-08T13:29:29.339Z,19.4
2017-06-08T13:30:37.425Z,19.4
2017-06-08T13:31:45.511Z,19.4
2017-06-08T13:32:53.596Z,19.4
2017-06-08T13:34:01.683Z,19.4
2017-06-08T13:35:09.768Z,19.5
2017-06-08T13:36:17.851Z,19.4
2017-06-08T13:37:25.937Z,19.4
2017-06-08T13:38:34.025Z,19.4
2017-06-08T13:39:42.110Z,19.4
2017-06-08T13:40:50.201Z,19.4
2017-06-08T13:41:58.283Z,19.4
2017-06-08T13:43:06.368Z,19.4
2017-06-08T13:44:14.453Z,19.4
2017-06-08T13:45:22.540Z,19.4
2017-06-08T13:46:30.624Z,19.4
2017-06-08T13:47:38.717Z,19.4
2017-06-08T13:48:46.803Z,19.4
2017-06-08T13:49:54.888Z,19.4
2017-06-08T13:51:02.979Z,19.4
2017-06-08T13:52:11.060Z,19.5
2017-06-08T13:53:19.145Z,19.5
2017-06-08T13:54:27.228Z,19.4
2017-06-08T13:55:35.315Z,19.4
2017-06-08T13:56:43.403Z,19.4
2017-06-08T13:57:51.488Z,19.4
2017-06-08T13:58:59.573Z,19.4
2017-06-08T14:00:07.661Z,19.4
2017-06-08T14:01:15.747Z,19.4
2017-06-08T14:02:23.842Z,19.5
2017-06-08T14:03:31.941Z,19.4
2017-06-08T14:04:40.003Z,19.4
2017-06-08T14:05:48.093Z,19.4
2017-06-08T14:06:56.175Z,19.5
2017-06-08T14:08:04.263Z,19.4
2017-06-08T14:09:12.354Z,19.5
2017-06-08T14:10:20.441Z,19.5
2017-06-08T14:11:28.527Z,19.4
2017-06-08T14:12:36.611Z,19.4
2017-06-08T14:13:44.697Z,19.5
2017-06-08T14:14:52.783Z,19.5
2017-06-08T14:16:00.869Z,19.5
2017-06-08T14:17:08.956Z,19.5
2017-06-08T14:18:17.053Z,19.5
2017-06-08T14:19:25.141Z,19.6
2017-06-08T14:20:33.228Z,19.4
2017-06-08T14:21:41.311Z,19.5
2017-06-08T14:22:49.401Z,19.5
2017-06-08T14:23:57.485Z,19.5
2017-06-08T14:25:05.570Z,19.5
2017-06-08T14:26:13.667Z,19.5
2017-06-08T14:27:21.743Z,19.6
2017-06-08T14:28:29.827Z,19.6
2017-06-08T14:29:37.914Z,19.6
2017-06-08T14:30:46.057Z,19.5
2017-06-08T14:31:54.088Z,19.6
2017-06-08T14:33:02.173Z,19.5
2017-06-08T14:34:10.260Z,19.6
2017-06-08T14:35:18.356Z,19.6
2017-06-08T14:36:26.433Z,19.6
2017-06-08T14:37:35.222Z,19.6
2017-06-08T14:38:43.197Z,19.6
2017-06-08T14:39:51.199Z,19.5
2017-06-08T14:40:59.365Z,19.6
2017-06-08T14:42:07.249Z,19.6
2017-06-08T14:43:15.350Z,19.6
2017-06-08T14:44:23.276Z,19.5
2017-06-08T14:45:31.525Z,19.6
2017-06-08T14:46:39.480Z,19.6
2017-06-08T14:47:47.531Z,19.5
2017-06-08T14:48:55.623Z,19.6
2017-06-08T14:50:03.541Z,19.6
2017-06-08T14:51:11.573Z,19.6
2017-06-08T14:52:19.632Z,19.6
2017-06-08T14:53:27.760Z,19.6
2017-06-08T14:54:36.033Z,19.6
2017-06-08T14:55:43.932Z,19.5
2017-06-08T14:56:52.025Z,19.6
2017-06-08T14:58:00.111Z,19.6
2017-06-08T14:59:08.196Z,19.6
2017-06-08T15:00:16.393Z,19.6
2017-06-08T15:01:24.365Z,19.6
2017-06-08T15:02:32.667Z,19.7
2017-06-08T15:03:40.607Z,19.6
2017-06-08T15:04:48.779Z,19.6
2017-06-08T15:05:56.836Z,19.7